Time;durP1;ratioP1;P1;durP2;ratioP2;P2;SDS_P1;SDS_P2;PMS_P1;PMS_P2;Temp;Humidity;BMP_temperature;BMP_pressure;BME280_temperature;BME280_humidity;BME280_pressure;Samples;Min_cycle;Max_cycle;Signal;HPM_P1;HPM_P2
2023/05/13 00:01:16;;;;;;;13.55;9.20;;;9.90;99.90;;;;;;5055086;28;20036;-73
2023/05/13 00:03:42;;;;;;;10.25;8.30;;;9.80;99.90;;;;;;5054335;28;20170;-73
2023/05/13 00:06:07;;;;;;;9.55;7.88;;;9.80;99.90;;;;;;5054733;28;20336;-73
2023/05/13 00:08:33;;;;;;;10.65;8.23;;;9.80;99.90;;;;;;5053670;28;20095;-73
2023/05/13 00:10:59;;;;;;;11.80;8.60;;;9.70;99.90;;;;;;5053938;28;20036;-74
2023/05/13 00:13:25;;;;;;;10.00;8.02;;;9.70;99.90;;;;;;5035500;28;20040;-73
2023/05/13 00:15:52;;;;;;;13.35;8.70;;;9.70;99.90;;;;;;5053738;28;20103;-73
2023/05/13 00:18:18;;;;;;;10.15;8.65;;;9.70;99.90;;;;;;5053763;28;20059;-73
2023/05/13 00:20:44;;;;;;;11.55;8.75;;;9.80;99.90;;;;;;5053214;28;20035;-73
2023/05/13 00:23:10;;;;;;;11.27;8.52;;;9.80;99.90;;;;;;5053782;28;20029;-73
2023/05/13 00:25:36;;;;;;;12.45;8.52;;;9.80;99.90;;;;;;5053113;28;20433;-73
2023/05/13 00:28:03;;;;;;;10.73;7.72;;;9.80;99.90;;;;;;5035554;28;20082;-73
2023/05/13 00:30:29;;;;;;;14.32;8.60;;;9.70;99.90;;;;;;5053460;28;20051;-73
2023/05/13 00:32:55;;;;;;;9.32;7.72;;;9.70;99.90;;;;;;5053651;28;20079;-73
2023/05/13 00:35:20;;;;;;;13.18;8.60;;;9.70;99.90;;;;;;5053361;28;20037;-73
2023/05/13 00:37:46;;;;;;;13.23;8.27;;;9.70;99.90;;;;;;5053172;28;20028;-73
2023/05/13 00:40:22;;;;;;;9.82;7.68;;;9.60;99.90;;;;;;5053818;28;20028;-73
2023/05/13 00:42:48;;;;;;;11.32;8.63;;;9.60;99.90;;;;;;5053749;28;20025;-73
2023/05/13 00:45:14;;;;;;;11.85;8.07;;;9.60;99.90;;;;;;5053685;28;20072;-73
2023/05/13 00:47:40;;;;;;;11.48;8.00;;;9.50;99.90;;;;;;5052981;28;20102;-73
2023/05/13 00:50:08;;;;;;;11.98;8.25;;;9.40;99.90;;;;;;5053403;28;20025;-73
2023/05/13 00:52:35;;;;;;;8.73;7.47;;;9.30;99.90;;;;;;5053178;28;20025;-73
2023/05/13 00:55:02;;;;;;;9.27;7.07;;;9.30;99.90;;;;;;5053493;28;20036;-73
2023/05/13 00:57:29;;;;;;;11.40;8.18;;;9.20;99.90;;;;;;5053171;28;20101;-73
2023/05/13 00:59:55;;;;;;;9.90;7.80;;;9.20;99.90;;;;;;5053045;28;20044;-73
2023/05/13 01:02:23;;;;;;;9.70;7.10;;;9.10;99.90;;;;;;5052896;28;20051;-73
2023/05/13 01:05:23;;;;;;;12.93;8.30;;;9.20;99.90;;;;;;5052842;28;20090;-73
2023/05/13 01:08:01;;;;;;;11.18;7.38;;;9.10;99.90;;;;;;5053298;28;20028;-73
2023/05/13 01:10:39;;;;;;;10.98;7.72;;;9.10;99.90;;;;;;5053446;28;20032;-76
2023/05/13 01:13:16;;;;;;;10.93;7.97;;;9.10;99.90;;;;;;5035368;28;20033;-74
2023/05/13 01:15:52;;;;;;;11.50;8.13;;;9.10;99.90;;;;;;5052767;28;20430;-74
2023/05/13 01:18:30;;;;;;;11.02;8.50;;;9.10;99.90;;;;;;5035957;28;20104;-73
2023/05/13 01:21:00;;;;;;;10.57;7.53;;;9.00;99.90;;;;;;5053090;28;20074;-73
2023/05/13 01:23:25;;;;;;;10.38;7.00;;;9.00;99.90;;;;;;5052998;28;20037;-76
2023/05/13 01:25:51;;;;;;;10.38;8.30;;;8.90;99.90;;;;;;5052683;28;20513;-73
2023/05/13 01:28:17;;;;;;;11.43;8.38;;;8.90;99.90;;;;;;5053301;28;20033;-73
2023/05/13 01:30:45;;;;;;;9.85;7.72;;;8.90;99.90;;;;;;5052395;28;20116;-73
2023/05/13 01:33:11;;;;;;;10.10;7.80;;;8.90;99.90;;;;;;5053490;28;20025;-73
2023/05/13 01:35:37;;;;;;;9.90;7.65;;;9.00;99.90;;;;;;5052461;28;20032;-73
2023/05/13 01:38:04;;;;;;;12.23;7.95;;;9.00;99.90;;;;;;5053053;28;20089;-73
2023/05/13 01:40:31;;;;;;;9.65;7.63;;;8.90;99.90;;;;;;5051034;28;20032;-74
2023/05/13 01:42:57;;;;;;;9.63;7.70;;;8.80;99.90;;;;;;5052278;28;20025;-73
2023/05/13 01:45:22;;;;;;;11.23;7.28;;;8.80;99.90;;;;;;5052416;28;20468;-73
2023/05/13 01:47:48;;;;;;;8.35;7.28;;;8.70;99.90;;;;;;5051876;28;20023;-73
2023/05/13 01:50:14;;;;;;;9.45;6.75;;;8.60;99.90;;;;;;5051914;28;20419;-73
2023/05/13 01:52:40;;;;;;;9.38;6.85;;;8.60;99.90;;;;;;5051919;28;20056;-73
2023/05/13 01:55:06;;;;;;;8.68;6.50;;;8.60;99.90;;;;;;5052293;28;20463;-72
2023/05/13 01:57:32;;;;;;;11.80;7.38;;;8.60;99.90;;;;;;5051641;28;20029;-72
2023/05/13 01:59:57;;;;;;;11.75;7.45;;;8.70;99.90;;;;;;5051611;28;20048;-72
2023/05/13 02:02:23;;;;;;;9.65;7.70;;;8.70;99.90;;;;;;5051629;28;20032;-71
2023/05/13 02:04:49;;;;;;;11.32;8.07;;;8.70;99.90;;;;;;5051368;28;20025;-73
2023/05/13 02:07:15;;;;;;;12.32;7.82;;;8.60;99.90;;;;;;5051904;28;20037;-73
2023/05/13 02:09:41;;;;;;;10.07;7.45;;;8.60;99.90;;;;;;5051674;28;20021;-73
2023/05/13 02:12:07;;;;;;;10.73;7.88;;;8.60;99.90;;;;;;5051558;28;20025;-73
2023/05/13 02:14:33;;;;;;;11.15;7.70;;;8.50;99.90;;;;;;5051208;28;20117;-73
2023/05/13 02:16:59;;;;;;;11.48;8.10;;;8.50;99.90;;;;;;5052113;28;20206;-73
2023/05/13 02:19:24;;;;;;;11.20;8.32;;;8.40;99.90;;;;;;5052278;28;20028;-73
2023/05/13 02:21:50;;;;;;;9.07;7.43;;;8.40;99.90;;;;;;5051799;28;20021;-73
2023/05/13 02:24:16;;;;;;;9.18;7.07;;;8.30;99.90;;;;;;5051645;28;20037;-73
2023/05/13 02:26:43;;;;;;;11.45;8.18;;;8.40;99.90;;;;;;5051039;28;20078;-73
2023/05/13 02:29:09;;;;;;;11.45;8.10;;;8.40;99.90;;;;;;5051247;28;20025;-74
2023/05/13 02:31:35;;;;;;;10.18;7.55;;;8.40;99.90;;;;;;5050794;28;20378;-73
2023/05/13 02:34:01;;;;;;;10.23;7.90;;;8.40;99.90;;;;;;5051501;28;20029;-73
2023/05/13 02:36:27;;;;;;;14.88;8.15;;;8.40;99.90;;;;;;5051571;28;20453;-71
2023/05/13 02:38:53;;;;;;;9.43;7.93;;;8.40;99.90;;;;;;5051562;28;20096;-73
2023/05/13 02:41:18;;;;;;;9.40;7.45;;;8.30;99.90;;;;;;5051383;28;20048;-71
2023/05/13 02:43:44;;;;;;;12.50;7.63;;;8.30;99.90;;;;;;5051066;28;20079;-73
2023/05/13 02:46:10;;;;;;;9.15;7.03;;;8.20;99.90;;;;;;5051679;28;20045;-73
2023/05/13 02:48:36;;;;;;;8.98;6.93;;;8.10;99.90;;;;;;5051449;28;20017;-72
2023/05/13 02:51:01;;;;;;;9.48;7.07;;;8.10;99.90;;;;;;5051525;28;20057;-71
2023/05/13 02:53:28;;;;;;;11.07;7.07;;;8.10;99.90;;;;;;5051509;28;20386;-72
2023/05/13 02:55:54;;;;;;;10.25;7.40;;;8.20;99.90;;;;;;5051168;28;20064;-73
2023/05/13 02:58:19;;;;;;;12.70;7.88;;;8.10;99.90;;;;;;5051154;28;20423;-71
2023/05/13 03:00:45;;;;;;;12.57;8.90;;;8.10;99.90;;;;;;5050161;28;20029;-74
2023/05/13 03:03:11;;;;;;;11.18;7.75;;;8.10;99.90;;;;;;5050787;28;20367;-71
2023/05/13 03:05:36;;;;;;;9.45;7.47;;;8.20;99.90;;;;;;5050389;28;20060;-72
2023/05/13 03:08:02;;;;;;;10.07;7.65;;;8.20;99.90;;;;;;5050893;28;20032;-73
2023/05/13 03:10:28;;;;;;;10.80;8.02;;;8.10;99.90;;;;;;5050846;28;20127;-72
2023/05/13 03:12:54;;;;;;;13.15;9.38;;;8.10;99.90;;;;;;5032415;28;20546;-72
2023/05/13 03:15:21;;;;;;;15.05;8.85;;;8.20;99.90;;;;;;5050651;28;20033;-72
2023/05/13 03:17:46;;;;;;;15.23;8.60;;;8.10;99.90;;;;;;5049970;28;20078;-72
2023/05/13 03:20:12;;;;;;;13.00;8.45;;;8.00;99.90;;;;;;5033020;28;20127;-71
2023/05/13 03:22:38;;;;;;;11.10;8.13;;;7.90;99.90;;;;;;5050190;28;20033;-74
2023/05/13 03:25:05;;;;;;;10.73;7.45;;;7.90;99.90;;;;;;5050571;28;20032;-74
2023/05/13 03:27:31;;;;;;;7.18;6.38;;;7.80;99.90;;;;;;5050916;28;20421;-73
2023/05/13 03:29:57;;;;;;;8.63;6.72;;;7.90;99.90;;;;;;5050105;28;20056;-73
2023/05/13 03:32:24;;;;;;;9.80;7.20;;;7.90;99.90;;;;;;5050596;28;20017;-73
2023/05/13 03:34:50;;;;;;;11.93;8.55;;;7.90;99.90;;;;;;5050106;28;20131;-71
2023/05/13 03:37:16;;;;;;;12.15;7.55;;;8.00;99.90;;;;;;5050608;28;20481;-73
2023/05/13 03:39:42;;;;;;;12.50;7.72;;;8.00;99.90;;;;;;5050085;28;20426;-72
2023/05/13 03:42:08;;;;;;;9.32;6.90;;;7.90;99.90;;;;;;5050512;28;20068;-73
2023/05/13 03:44:34;;;;;;;8.43;6.10;;;7.90;99.90;;;;;;5032528;28;20598;-73
2023/05/13 03:46:59;;;;;;;10.38;7.53;;;7.90;99.90;;;;;;5049974;28;20031;-73
2023/05/13 03:49:25;;;;;;;9.27;6.90;;;7.90;99.90;;;;;;5050374;28;20441;-73
2023/05/13 03:51:51;;;;;;;11.40;7.43;;;7.90;99.90;;;;;;5049725;28;20052;-73
2023/05/13 03:54:16;;;;;;;8.50;6.43;;;8.00;99.90;;;;;;5049984;28;20032;-73
2023/05/13 03:56:42;;;;;;;10.52;6.70;;;7.90;99.90;;;;;;5049718;28;20025;-73
2023/05/13 03:59:08;;;;;;;9.98;6.80;;;8.00;99.90;;;;;;5050855;28;20029;-73
2023/05/13 04:01:35;;;;;;;10.50;7.65;;;8.00;99.90;;;;;;5050159;28;20156;-73
2023/05/13 04:04:00;;;;;;;11.85;8.32;;;8.10;99.90;;;;;;5050300;28;20056;-72
2023/05/13 04:06:26;;;;;;;16.33;8.45;;;8.10;99.90;;;;;;5050788;28;20033;-74
2023/05/13 04:08:52;;;;;;;11.60;7.18;;;8.20;99.90;;;;;;5050592;28;20035;-73
2023/05/13 04:11:17;;;;;;;11.90;7.72;;;8.20;99.90;;;;;;5050842;28;20040;-73
2023/05/13 04:13:44;;;;;;;16.15;8.48;;;8.40;99.90;;;;;;5050056;28;20051;-73
2023/05/13 04:16:10;;;;;;;20.88;9.57;;;8.50;99.90;;;;;;5032437;28;20129;-73
2023/05/13 04:18:36;;;;;;;26.27;9.82;;;8.60;99.90;;;;;;5049673;28;20045;-75
2023/05/13 04:21:06;;;;;;;35.28;11.30;;;8.70;99.90;;;;;;5049897;28;20046;-74
2023/05/13 04:23:32;;;;;;;38.10;11.52;;;8.80;99.90;;;;;;5050318;28;20029;-74
2023/05/13 04:25:58;;;;;;;40.67;11.35;;;8.80;99.90;;;;;;5049849;28;20025;-74
2023/05/13 04:28:23;;;;;;;61.15;14.05;;;8.80;99.90;;;;;;5049606;28;20035;-71
2023/05/13 04:30:49;;;;;;;31.13;11.63;;;8.80;99.90;;;;;;5049601;28;20045;-72
2023/05/13 04:33:15;;;;;;;32.55;11.85;;;8.80;99.90;;;;;;5049990;28;20055;-71
2023/05/13 04:35:41;;;;;;;36.50;12.30;;;8.90;99.90;;;;;;5049847;28;20056;-73
2023/05/13 04:38:08;;;;;;;45.20;12.35;;;8.90;99.90;;;;;;5053768;28;20096;-72
2023/05/13 04:40:33;;;;;;;41.30;12.48;;;9.00;99.90;;;;;;5053543;28;20033;-72
2023/05/13 04:42:59;;;;;;;47.33;13.55;;;9.00;99.90;;;;;;5051597;28;20032;-72
2023/05/13 04:45:25;;;;;;;35.92;12.90;;;9.20;99.90;;;;;;5053070;28;20037;-72
2023/05/13 04:47:51;;;;;;;27.83;11.45;;;9.20;99.90;;;;;;5053139;28;20166;-73
2023/05/13 04:50:17;;;;;;;65.32;16.08;;;9.30;99.90;;;;;;5053776;28;20071;-71
2023/05/13 04:52:43;;;;;;;48.33;14.57;;;9.40;99.90;;;;;;5052614;28;20035;-74
2023/05/13 04:55:09;;;;;;;46.53;13.98;;;9.40;99.90;;;;;;5053330;28;20035;-71
2023/05/13 04:57:35;;;;;;;32.38;12.73;;;9.50;99.90;;;;;;5052931;28;20040;-71
2023/05/13 05:00:03;;;;;;;76.70;15.02;;;9.50;99.90;;;;;;5052842;28;20442;-72
2023/05/13 05:02:28;;;;;;;106.28;14.55;;;9.60;99.90;;;;;;5053023;28;20029;-73
2023/05/13 05:04:55;;;;;;;136.05;16.15;;;9.60;99.90;;;;;;5052557;28;20075;-72
2023/05/13 05:07:21;;;;;;;30.48;12.55;;;9.60;99.90;;;;;;5053027;28;20075;-73
2023/05/13 05:09:47;;;;;;;59.75;11.70;;;9.60;99.90;;;;;;5052892;28;20029;-73
2023/05/13 05:12:13;;;;;;;36.17;11.52;;;9.60;99.90;;;;;;5052872;28;20106;-72
2023/05/13 05:14:39;;;;;;;26.45;9.90;;;9.60;99.90;;;;;;5053265;28;20044;-72
2023/05/13 05:17:05;;;;;;;29.02;10.55;;;9.70;99.90;;;;;;5035191;28;20040;-72
2023/05/13 05:19:30;;;;;;;24.85;10.25;;;9.70;99.90;;;;;;5052601;28;20323;-73
2023/05/13 05:21:57;;;;;;;23.63;11.35;;;9.80;99.90;;;;;;5052084;28;20021;-72
2023/05/13 05:24:22;;;;;;;44.70;13.05;;;9.80;99.90;;;;;;5052234;28;20029;-72
2023/05/13 05:26:48;;;;;;;31.40;11.50;;;9.80;99.90;;;;;;5052402;28;20036;-72
2023/05/13 05:29:14;;;;;;;58.47;12.57;;;9.80;99.90;;;;;;5052251;28;20020;-72
2023/05/13 05:31:40;;;;;;;69.07;12.57;;;9.80;99.90;;;;;;5051257;28;20029;-72
2023/05/13 05:34:05;;;;;;;76.43;13.20;;;9.90;99.90;;;;;;5051885;28;20462;-72
2023/05/13 05:36:31;;;;;;;33.65;12.00;;;9.90;99.90;;;;;;5052427;28;20032;-72
2023/05/13 05:38:57;;;;;;;58.30;13.48;;;10.00;99.90;;;;;;5052465;28;20036;-72
2023/05/13 05:41:23;;;;;;;104.82;15.25;;;10.10;99.90;;;;;;5053075;28;20143;-72
2023/05/13 05:43:49;;;;;;;89.82;14.88;;;10.00;99.90;;;;;;5052009;28;20091;-72
2023/05/13 05:46:15;;;;;;;37.75;11.90;;;10.00;99.90;;;;;;5052191;28;20060;-72
2023/05/13 05:48:41;;;;;;;43.28;12.63;;;10.10;99.90;;;;;;5052372;28;20029;-72
2023/05/13 05:51:06;;;;;;;50.72;12.52;;;10.10;99.90;;;;;;5052415;28;20032;-72
2023/05/13 05:53:33;;;;;;;78.15;13.68;;;10.10;99.90;;;;;;5051424;28;20032;-73
2023/05/13 05:55:59;;;;;;;96.68;13.98;;;10.10;99.90;;;;;;5052129;28;20481;-72
2023/05/13 05:58:25;;;;;;;25.75;10.98;;;10.10;99.90;;;;;;5051870;28;20029;-72
2023/05/13 06:00:53;;;;;;;25.80;11.05;;;10.00;99.90;;;;;;5051854;28;20029;-72
2023/05/13 06:03:19;;;;;;;32.97;11.68;;;10.00;99.90;;;;;;5051964;28;20021;-72
2023/05/13 06:05:45;;;;;;;30.98;12.10;;;10.10;99.90;;;;;;5051695;28;20239;-74
2023/05/13 06:08:11;;;;;;;45.55;12.15;;;10.20;99.90;;;;;;5052243;28;20135;-72
2023/05/13 06:10:37;;;;;;;39.97;12.70;;;10.20;99.90;;;;;;5052211;28;20354;-72
2023/05/13 06:13:03;;;;;;;39.28;13.57;;;10.20;99.90;;;;;;5051791;28;20025;-72
2023/05/13 06:15:29;;;;;;;33.58;12.70;;;10.30;99.90;;;;;;5052152;28;20413;-72
2023/05/13 06:17:55;;;;;;;31.23;12.05;;;10.30;99.90;;;;;;5051612;28;20056;-72
2023/05/13 06:20:21;;;;;;;72.55;13.95;;;10.40;99.90;;;;;;5052174;28;20024;-72
2023/05/13 06:22:47;;;;;;;23.77;11.07;;;10.40;99.90;;;;;;5051278;28;20036;-74
2023/05/13 06:25:13;;;;;;;16.95;11.05;;;10.40;99.90;;;;;;5051980;28;20304;-72
2023/05/13 06:27:38;;;;;;;45.35;13.10;;;10.40;99.90;;;;;;5052055;28;20352;-73
2023/05/13 06:30:06;;;;;;;27.90;12.48;;;10.40;99.90;;;;;;5051071;28;20620;-72
2023/05/13 06:32:32;;;;;;;15.73;10.40;;;10.30;99.90;;;;;;5051560;28;20378;-72
2023/05/13 06:34:57;;;;;;;17.27;10.93;;;10.30;99.90;;;;;;5050785;28;20029;-72
2023/05/13 06:37:23;;;;;;;24.13;10.27;;;10.30;99.90;;;;;;5052036;28;20051;-72
2023/05/13 06:39:49;;;;;;;39.33;10.02;;;10.40;99.90;;;;;;5051274;28;20097;-72
2023/05/13 06:42:15;;;;;;;11.18;8.55;;;10.30;99.90;;;;;;5051692;28;20508;-72
2023/05/13 06:44:40;;;;;;;10.65;9.10;;;10.30;99.90;;;;;;5033479;28;20108;-72
2023/05/13 06:47:07;;;;;;;11.10;9.48;;;10.30;99.90;;;;;;5051167;28;20615;-73
2023/05/13 06:49:33;;;;;;;12.65;9.40;;;10.40;99.90;;;;;;5051622;28;20021;-72
2023/05/13 06:51:58;;;;;;;12.00;9.20;;;10.40;99.90;;;;;;5051070;28;20119;-72
2023/05/13 06:54:25;;;;;;;9.27;7.53;;;10.50;99.90;;;;;;5051659;28;20033;-72
2023/05/13 06:56:52;;;;;;;16.55;9.32;;;10.50;99.90;;;;;;5050684;28;20029;-73
2023/05/13 06:59:19;;;;;;;14.35;9.07;;;10.60;99.90;;;;;;5050670;28;20033;-72
2023/05/13 07:01:44;;;;;;;16.48;9.63;;;10.60;99.90;;;;;;5050920;28;20029;-72
2023/05/13 07:04:10;;;;;;;17.95;10.50;;;10.50;99.90;;;;;;5050052;28;20040;-72
2023/05/13 07:06:36;;;;;;;14.90;9.73;;;10.40;99.90;;;;;;5051043;28;20096;-72
2023/05/13 07:09:02;;;;;;;17.90;10.75;;;10.50;99.90;;;;;;5050598;28;20390;-72
2023/05/13 07:11:28;;;;;;;14.05;10.77;;;10.50;99.90;;;;;;5051004;28;20021;-72
2023/05/13 07:13:54;;;;;;;22.20;12.32;;;10.60;99.90;;;;;;5032483;28;20029;-72
2023/05/13 07:16:20;;;;;;;20.33;11.60;;;10.60;99.90;;;;;;5050817;28;20098;-72
2023/05/13 07:18:46;;;;;;;19.48;12.90;;;10.70;99.90;;;;;;5050848;28;20111;-73
2023/05/13 07:21:14;;;;;;;17.05;12.27;;;10.60;99.90;;;;;;5050363;28;20185;-73
2023/05/13 07:23:39;;;;;;;27.63;14.40;;;10.80;99.90;;;;;;5050523;28;20085;-73
2023/05/13 07:26:05;;;;;;;24.52;15.15;;;10.90;99.90;;;;;;5050155;28;20037;-73
2023/05/13 07:28:31;;;;;;;23.10;13.82;;;11.00;99.90;;;;;;5050987;28;20037;-73
2023/05/13 07:30:57;;;;;;;34.10;17.25;;;11.00;99.90;;;;;;5049554;28;20077;-73
2023/05/13 07:33:23;;;;;;;39.22;16.23;;;11.00;99.90;;;;;;5050928;28;20025;-73
2023/05/13 07:35:49;;;;;;;29.50;15.88;;;10.90;99.90;;;;;;5050683;28;20021;-74
2023/05/13 07:38:14;;;;;;;37.30;17.80;;;10.90;99.90;;;;;;5051525;28;20088;-74
2023/05/13 07:40:40;;;;;;;37.85;19.38;;;11.10;99.90;;;;;;5051112;28;20029;-74
2023/05/13 07:43:07;;;;;;;34.00;18.75;;;11.10;99.90;;;;;;5050473;28;20104;-74
2023/05/13 07:45:33;;;;;;;35.53;20.42;;;11.10;99.90;;;;;;5050571;28;20052;-74
2023/05/13 07:47:58;;;;;;;32.22;18.63;;;11.20;99.90;;;;;;5050152;28;20037;-74
2023/05/13 07:50:24;;;;;;;41.40;20.90;;;11.20;99.90;;;;;;5049996;28;20363;-73
2023/05/13 07:52:50;;;;;;;36.53;20.10;;;11.30;99.90;;;;;;5050201;28;20029;-75
2023/05/13 07:55:16;;;;;;;35.75;19.80;;;11.30;99.90;;;;;;5050074;28;20064;-73
2023/05/13 07:57:42;;;;;;;32.75;19.80;;;11.40;99.90;;;;;;5049262;28;20029;-73
2023/05/13 08:00:08;;;;;;;33.47;18.73;;;11.50;99.90;;;;;;5050136;28;20025;-73
2023/05/13 08:02:37;;;;;;;30.58;18.70;;;11.60;99.90;;;;;;5050611;28;20493;-73
2023/05/13 08:05:03;;;;;;;26.08;18.30;;;11.70;99.90;;;;;;5049949;28;20036;-73
2023/05/13 08:07:29;;;;;;;28.27;16.85;;;11.80;99.90;;;;;;5050385;28;20025;-73
2023/05/13 08:09:55;;;;;;;24.52;17.73;;;11.90;99.90;;;;;;5049955;28;20028;-74
2023/05/13 08:12:21;;;;;;;26.50;17.13;;;11.90;99.90;;;;;;5053022;28;20024;-74
2023/05/13 08:14:46;;;;;;;25.90;17.65;;;12.10;99.90;;;;;;5054303;28;20029;-73
2023/05/13 08:17:12;;;;;;;22.17;14.63;;;12.20;99.90;;;;;;5053911;28;20183;-73
2023/05/13 08:19:38;;;;;;;17.15;13.10;;;12.20;99.90;;;;;;5054230;28;20125;-74
2023/05/13 08:22:04;;;;;;;17.73;13.85;;;12.20;99.90;;;;;;5053715;28;20040;-74
2023/05/13 08:24:30;;;;;;;20.08;14.85;;;12.30;99.90;;;;;;5035786;28;20029;-73
2023/05/13 08:26:56;;;;;;;20.33;14.07;;;12.20;99.90;;;;;;5053676;28;20032;-74
2023/05/13 08:29:21;;;;;;;17.77;14.18;;;12.20;99.90;;;;;;5053428;28;20028;-73
2023/05/13 08:31:47;;;;;;;17.15;13.80;;;12.20;99.90;;;;;;5053624;28;20065;-73
2023/05/13 08:34:13;;;;;;;20.55;13.93;;;12.30;99.90;;;;;;5052967;28;20470;-71
2023/05/13 08:36:39;;;;;;;19.02;13.20;;;12.40;99.90;;;;;;5035114;28;20025;-72
2023/05/13 08:39:06;;;;;;;13.18;11.73;;;12.60;99.90;;;;;;5053146;28;20025;-71
2023/05/13 08:41:33;;;;;;;13.48;10.55;;;12.60;99.90;;;;;;5053396;28;20078;-72
2023/05/13 08:44:03;;;;;;;11.55;10.35;;;12.60;99.90;;;;;;5052637;28;20035;-74
2023/05/13 08:46:32;;;;;;;11.73;9.52;;;12.80;99.90;;;;;;5053407;28;20380;-72
2023/05/13 08:48:59;;;;;;;12.10;10.43;;;12.60;99.90;;;;;;5052801;28;20109;-73
2023/05/13 08:51:25;;;;;;;11.60;9.98;;;12.60;99.90;;;;;;5051592;28;20036;-72
2023/05/13 08:53:52;;;;;;;11.55;9.35;;;12.70;99.90;;;;;;5035087;28;20526;-71
2023/05/13 08:56:18;;;;;;;10.60;8.90;;;12.70;99.90;;;;;;5051245;28;20029;-73
2023/05/13 08:58:43;;;;;;;11.00;9.38;;;12.60;99.90;;;;;;5053003;28;20029;-73
2023/05/13 09:01:09;;;;;;;10.25;9.02;;;12.70;99.90;;;;;;5052575;28;20501;-72
2023/05/13 09:03:47;;;;;;;9.15;7.78;;;12.80;99.90;;;;;;5052355;28;20040;-73
2023/05/13 09:06:13;;;;;;;9.60;8.60;;;12.90;99.90;;;;;;5052334;28;20434;-72
2023/05/13 09:08:39;;;;;;;11.23;8.95;;;13.00;99.90;;;;;;5034811;28;20044;-72
2023/05/13 09:11:04;;;;;;;10.63;9.15;;;12.90;99.90;;;;;;5052164;28;20116;-72
2023/05/13 09:13:30;;;;;;;9.65;8.70;;;12.70;99.90;;;;;;5052984;28;20070;-72
2023/05/13 09:15:56;;;;;;;9.85;7.85;;;12.80;99.90;;;;;;5052712;28;20040;-74
2023/05/13 09:18:30;;;;;;;9.68;8.77;;;12.80;99.90;;;;;;5052731;28;20036;-72
2023/05/13 09:20:56;;;;;;;10.98;9.57;;;13.00;99.90;;;;;;5052612;28;20091;-74
2023/05/13 09:23:22;;;;;;;11.55;9.55;;;13.00;99.90;;;;;;5051902;28;20029;-72
2023/05/13 09:25:48;;;;;;;8.88;7.93;;;13.10;99.90;;;;;;5052648;28;20115;-72
2023/05/13 09:28:14;;;;;;;10.50;8.90;;;13.30;99.90;;;;;;5051912;28;20116;-72
2023/05/13 09:30:40;;;;;;;8.88;7.97;;;13.40;99.90;;;;;;5052399;28;20085;-72
2023/05/13 09:33:13;;;;;;;9.98;9.00;;;13.40;99.90;;;;;;5052142;28;20048;-73
2023/05/13 09:35:42;;;;;;;9.48;8.35;;;13.60;99.90;;;;;;5052254;28;20040;-72
2023/05/13 09:38:16;;;;;;;9.35;8.35;;;13.60;99.90;;;;;;5052221;28;20032;-73
2023/05/13 09:40:59;;;;;;;9.45;8.55;;;13.50;99.90;;;;;;5052407;28;20025;-72
2023/05/13 09:43:32;;;;;;;8.45;7.65;;;13.50;99.90;;;;;;5052027;28;20104;-72
2023/05/13 09:46:01;;;;;;;8.60;7.70;;;13.60;99.90;;;;;;5052392;28;20106;-74
2023/05/13 09:48:29;;;;;;;8.52;7.60;;;13.60;99.90;;;;;;5052280;28;20029;-72
2023/05/13 09:50:56;;;;;;;10.48;7.95;;;13.70;99.90;;;;;;5052153;28;20033;-71
2023/05/13 09:53:23;;;;;;;10.10;8.98;;;13.70;99.90;;;;;;5051501;28;20110;-72
2023/05/13 09:55:51;;;;;;;8.18;7.40;;;14.00;99.90;;;;;;5051793;28;20029;-71
2023/05/13 09:58:19;;;;;;;9.05;8.18;;;14.20;99.90;;;;;;5051466;28;20051;-71
2023/05/13 10:00:46;;;;;;;8.98;7.60;;;14.50;99.90;;;;;;5051869;28;20048;-71
2023/05/13 10:03:12;;;;;;;8.82;7.93;;;14.70;99.90;;;;;;5051393;28;20029;-72
2023/05/13 10:05:39;;;;;;;9.38;8.40;;;14.90;99.90;;;;;;5052214;28;20136;-73
2023/05/13 10:08:26;;;;;;;9.27;7.53;;;15.00;99.90;;;;;;5051876;28;20029;-73
2023/05/13 10:10:54;;;;;;;10.18;8.77;;;15.10;99.90;;;;;;5052454;28;20037;-72
2023/05/13 10:13:23;;;;;;;9.88;8.88;;;15.30;99.90;;;;;;5051390;28;20032;-72
2023/05/13 10:15:51;;;;;;;9.98;8.98;;;15.10;99.90;;;;;;5051393;28;20067;-74
2023/05/13 10:18:18;;;;;;;9.35;8.45;;;15.00;99.90;;;;;;5051455;28;20029;-73
2023/05/13 10:20:45;;;;;;;10.88;9.25;;;15.20;99.90;;;;;;5051472;28;20122;-72
2023/05/13 10:23:11;;;;;;;10.10;9.10;;;15.00;99.90;;;;;;5051096;28;20025;-72
2023/05/13 10:25:37;;;;;;;13.02;9.35;;;15.20;99.90;;;;;;5051241;28;20045;-72
2023/05/13 10:28:03;;;;;;;11.13;10.02;;;14.70;99.90;;;;;;5051163;28;20039;-73
2023/05/13 10:30:31;;;;;;;10.75;9.50;;;14.90;99.90;;;;;;5050985;28;20129;-72
2023/05/13 10:33:00;;;;;;;9.63;8.73;;;15.10;99.90;;;;;;5033582;28;20386;-72
2023/05/13 10:35:31;;;;;;;9.70;8.60;;;15.10;99.90;;;;;;5050961;28;20130;-71
2023/05/13 10:38:16;;;;;;;9.40;8.43;;;15.00;99.90;;;;;;5051818;28;20052;-73
2023/05/13 10:41:00;;;;;;;9.20;8.38;;;14.90;99.90;;;;;;5051765;28;20025;-72
2023/05/13 10:43:28;;;;;;;10.20;9.10;;;15.20;99.90;;;;;;5050546;28;20029;-72
2023/05/13 10:46:02;;;;;;;10.13;9.02;;;15.40;99.90;;;;;;5051208;28;20033;-71
2023/05/13 10:48:49;;;;;;;11.07;9.98;;;15.60;99.90;;;;;;5051101;28;20028;-72
2023/05/13 10:51:17;;;;;;;10.75;9.40;;;15.50;99.90;;;;;;5050595;28;20083;-72
2023/05/13 10:53:53;;;;;;;10.65;9.55;;;15.60;99.90;;;;;;5050725;28;20033;-73
2023/05/13 10:56:25;;;;;;;10.40;9.25;;;15.70;99.90;;;;;;5050821;28;20048;-72
2023/05/13 10:59:02;;;;;;;12.55;10.13;;;15.70;99.90;;;;;;5051246;28;20021;-72
2023/05/13 11:01:29;;;;;;;11.38;10.18;;;15.70;99.90;;;;;;5032324;28;20053;-73
2023/05/13 11:03:58;;;;;;;10.20;8.70;;;15.70;99.90;;;;;;5050577;28;20106;-72
2023/05/13 11:06:32;;;;;;;10.27;9.30;;;15.70;99.90;;;;;;5050821;28;20590;-72
2023/05/13 11:08:58;;;;;;;11.68;10.48;;;15.70;99.90;;;;;;5032683;28;20079;-71
2023/05/13 11:11:31;;;;;;;12.18;10.70;;;15.90;99.90;;;;;;5050207;28;20454;-73
2023/05/13 11:14:17;;;;;;;10.07;9.07;;;16.00;99.90;;;;;;5050332;28;20390;-71
2023/05/13 11:16:52;;;;;;;11.13;10.13;;;16.10;99.90;;;;;;5050318;28;20454;-72
2023/05/13 11:19:26;;;;;;;11.82;9.70;;;16.20;99.90;;;;;;5050240;28;20032;-72
2023/05/13 11:21:57;;;;;;;10.27;9.23;;;16.00;99.90;;;;;;5050495;28;20423;-73
2023/05/13 11:24:23;;;;;;;10.40;9.40;;;16.00;99.90;;;;;;5050026;28;20025;-72
2023/05/13 11:26:57;;;;;;;11.63;9.27;;;15.80;99.90;;;;;;5050727;28;20033;-74
2023/05/13 11:29:31;;;;;;;10.23;9.07;;;16.00;99.90;;;;;;5050371;28;20066;-73
2023/05/13 11:31:58;;;;;;;10.68;9.55;;;16.00;99.90;;;;;;5050888;28;20036;-73
2023/05/13 11:34:25;;;;;;;8.95;8.15;;;16.20;99.90;;;;;;5050315;28;20490;-73
2023/05/13 11:37:10;;;;;;;9.30;8.40;;;16.20;99.90;;;;;;5050907;28;20123;-73
2023/05/13 11:39:40;;;;;;;9.23;8.32;;;16.20;99.90;;;;;;5050552;28;20048;-73
2023/05/13 11:42:08;;;;;;;9.25;8.18;;;16.10;99.90;;;;;;5050276;28;20052;-75
2023/05/13 11:44:34;;;;;;;10.60;7.35;;;16.00;99.90;;;;;;5050349;28;20407;-73
2023/05/13 11:47:04;;;;;;;8.00;7.03;;;15.90;99.90;;;;;;5036620;28;20029;-73
2023/05/13 11:49:33;;;;;;;12.77;8.13;;;15.90;99.90;;;;;;5054136;28;20035;-73
2023/05/13 11:52:04;;;;;;;9.38;8.38;;;16.00;99.90;;;;;;5054722;28;20074;-72
2023/05/13 11:54:30;;;;;;;10.05;7.45;;;15.80;99.90;;;;;;5053930;28;20426;-73
2023/05/13 11:56:56;;;;;;;8.93;7.55;;;15.70;99.90;;;;;;5054133;28;20112;-72
2023/05/13 11:59:22;;;;;;;9.63;7.55;;;15.80;99.90;;;;;;5053583;28;20056;-72
2023/05/13 12:02:03;;;;;;;9.80;8.10;;;15.90;99.90;;;;;;5054106;28;20029;-72
2023/05/13 12:04:30;;;;;;;10.10;9.00;;;15.80;99.90;;;;;;5053624;28;20147;-72
2023/05/13 12:06:56;;;;;;;11.25;10.10;;;16.00;99.90;;;;;;5054244;28;20041;-72
2023/05/13 12:09:23;;;;;;;13.50;10.93;;;16.20;99.90;;;;;;5053839;28;20108;-73
2023/05/13 12:11:52;;;;;;;10.52;8.70;;;16.20;99.90;;;;;;5036264;28;20033;-72
2023/05/13 12:14:19;;;;;;;10.02;7.95;;;16.20;99.90;;;;;;5053422;28;20033;-72
2023/05/13 12:16:45;;;;;;;12.20;9.93;;;16.10;99.90;;;;;;5054120;28;20039;-72
2023/05/13 12:19:11;;;;;;;11.00;9.48;;;16.10;99.90;;;;;;5053400;28;20029;-73
2023/05/13 12:21:37;;;;;;;13.40;11.38;;;16.30;99.90;;;;;;5053582;28;20028;-72
2023/05/13 12:24:17;;;;;;;15.43;13.00;;;16.40;99.90;;;;;;5053090;28;20121;-72
2023/05/13 12:26:42;;;;;;;11.52;9.70;;;16.30;99.90;;;;;;5053727;28;20125;-72
2023/05/13 12:29:08;;;;;;;10.95;9.55;;;16.40;99.90;;;;;;5053551;28;20103;-76
2023/05/13 12:31:34;;;;;;;12.50;9.43;;;16.50;99.90;;;;;;5053821;28;20109;-74
2023/05/13 12:34:00;;;;;;;10.93;9.35;;;16.40;99.90;;;;;;5053405;28;20037;-74
2023/05/13 12:36:34;;;;;;;10.45;7.15;;;16.40;99.90;;;;;;5052768;28;20474;-74
2023/05/13 12:39:04;;;;;;;10.52;9.10;;;16.40;99.90;;;;;;5054220;28;20025;-73
2023/05/13 12:41:31;;;;;;;13.82;10.85;;;16.40;99.90;;;;;;5053001;28;20554;-73